Time;durP1;ratioP1;P1;durP2;ratioP2;P2;SDS_P1;SDS_P2;PMS_P1;PMS_P2;Temp;Humidity;BMP_temperature;BMP_pressure;BME280_temperature;BME280_humidity;BME280_pressure;Samples;Min_cycle;Max_cycle;Signal;HPM_P1;HPM_P2
2023/09/22 00:00:14;;;;;;;1.13;0.60;;;12.20;99.90;;;;;;5048847;28;20044;-60
2023/09/22 00:02:45;;;;;;;3.47;1.15;;;12.20;99.90;;;;;;5055121;28;20059;-60
2023/09/22 00:05:12;;;;;;;3.45;0.68;;;12.20;99.90;;;;;;5061000;28;20045;-60
2023/09/22 00:07:44;;;;;;;3.60;0.63;;;12.20;99.90;;;;;;5057128;28;20445;-60
2023/09/22 00:10:12;;;;;;;3.30;0.80;;;12.20;99.90;;;;;;5047305;28;20041;-61
2023/09/22 00:12:40;;;;;;;4.50;0.82;;;12.30;99.90;;;;;;5054570;28;20135;-60
2023/09/22 00:15:07;;;;;;;3.30;0.70;;;12.30;99.90;;;;;;5064994;28;20048;-60
2023/09/22 00:17:37;;;;;;;1.30;0.50;;;12.30;99.90;;;;;;5055809;28;20048;-60
2023/09/22 00:20:08;;;;;;;3.42;0.80;;;12.20;99.90;;;;;;5062566;28;20045;-60
2023/09/22 00:22:35;;;;;;;5.82;1.38;;;12.20;99.90;;;;;;5064109;28;20061;-60
2023/09/22 00:25:02;;;;;;;3.17;1.20;;;12.20;99.90;;;;;;5050495;28;20049;-60
2023/09/22 00:27:29;;;;;;;2.75;0.98;;;12.20;99.90;;;;;;5062906;28;21153;-60
2023/09/22 00:29:56;;;;;;;0.98;0.65;;;12.20;99.90;;;;;;5049346;28;20053;-60
2023/09/22 00:32:23;;;;;;;2.72;0.80;;;12.10;99.90;;;;;;5062637;28;20056;-62
2023/09/22 00:34:50;;;;;;;2.22;0.70;;;12.10;99.90;;;;;;5050343;28;20079;-60
2023/09/22 00:37:17;;;;;;;4.38;0.90;;;12.20;99.90;;;;;;5060526;28;20092;-60
2023/09/22 00:39:43;;;;;;;0.82;0.57;;;12.10;99.90;;;;;;5051182;28;20057;-60
2023/09/22 00:42:11;;;;;;;2.72;1.52;;;12.10;99.90;;;;;;5058357;28;20052;-62
2023/09/22 00:44:38;;;;;;;11.43;3.60;;;12.10;99.90;;;;;;5053308;28;20053;-60
2023/09/22 00:47:06;;;;;;;3.08;0.77;;;12.10;99.90;;;;;;5055714;28;20094;-61
2023/09/22 00:49:32;;;;;;;2.25;0.90;;;12.10;99.90;;;;;;5054475;28;20052;-62
2023/09/22 00:51:59;;;;;;;2.72;0.90;;;12.20;99.90;;;;;;4679841;28;10000610;-61
2023/09/22 00:54:26;;;;;;;2.30;0.93;;;12.20;99.90;;;;;;5049803;28;20049;-60
2023/09/22 00:56:53;;;;;;;3.90;0.88;;;12.20;99.90;;;;;;5053201;28;20040;-60
2023/09/22 00:59:20;;;;;;;3.03;0.70;;;12.20;99.90;;;;;;5041615;28;20052;-60
2023/09/22 01:01:50;;;;;;;4.38;0.70;;;12.20;99.90;;;;;;5041405;28;20049;-61
2023/09/22 01:04:19;;;;;;;2.38;0.80;;;12.20;99.90;;;;;;5040918;28;20495;-65
2023/09/22 01:06:46;;;;;;;2.85;0.85;;;12.10;99.90;;;;;;5068191;28;20090;-61
2023/09/22 01:09:13;;;;;;;1.35;0.70;;;12.10;99.90;;;;;;5058453;28;20041;-61
2023/09/22 01:11:41;;;;;;;3.78;0.82;;;12.10;99.90;;;;;;5068979;28;20492;-59
2023/09/22 01:14:08;;;;;;;4.82;0.93;;;12.10;99.90;;;;;;5061913;28;20048;-60
2023/09/22 01:16:35;;;;;;;4.05;0.82;;;12.10;99.90;;;;;;5048859;28;20099;-60
2023/09/22 01:19:02;;;;;;;3.40;1.00;;;12.00;99.90;;;;;;5061620;28;20074;-61
2023/09/22 01:21:29;;;;;;;2.03;0.98;;;12.10;99.90;;;;;;5030760;28;20099;-60
2023/09/22 01:23:57;;;;;;;3.45;1.10;;;12.10;99.90;;;;;;5052972;28;20052;-60
2023/09/22 01:26:24;;;;;;;1.40;0.75;;;12.10;99.90;;;;;;5068394;28;20055;-60
2023/09/22 01:28:51;;;;;;;6.65;0.80;;;12.20;99.90;;;;;;5058945;28;20053;-60
2023/09/22 01:31:18;;;;;;;5.00;1.00;;;12.20;99.90;;;;;;5066292;28;20041;-60
2023/09/22 01:33:45;;;;;;;5.40;1.10;;;12.20;99.90;;;;;;5060813;28;20155;-60
2023/09/22 01:36:13;;;;;;;1.60;0.95;;;12.20;99.90;;;;;;5064456;28;20411;-60
2023/09/22 01:38:40;;;;;;;6.10;1.05;;;12.20;99.90;;;;;;5046640;28;20049;-60
2023/09/22 01:41:07;;;;;;;4.10;1.42;;;12.30;99.90;;;;;;5055714;28;20041;-60
2023/09/22 01:43:35;;;;;;;2.53;0.90;;;12.30;99.90;;;;;;5051463;28;20091;-60
2023/09/22 01:46:02;;;;;;;0.88;0.80;;;12.20;99.90;;;;;;5057885;28;20049;-61
2023/09/22 01:48:29;;;;;;;5.38;1.58;;;12.20;99.90;;;;;;5049366;28;20058;-60
2023/09/22 01:51:00;;;;;;;4.50;1.20;;;12.20;99.90;;;;;;5063971;28;20056;-60
2023/09/22 01:53:27;;;;;;;5.13;1.10;;;12.30;99.90;;;;;;5053122;28;20053;-60
2023/09/22 01:55:54;;;;;;;1.88;1.20;;;12.20;99.90;;;;;;5057582;28;20127;-60
2023/09/22 01:58:20;;;;;;;4.45;1.10;;;12.20;99.90;;;;;;5067143;28;20169;-60
2023/09/22 02:00:51;;;;;;;2.53;0.95;;;12.20;99.90;;;;;;5057280;28;20140;-60
2023/09/22 02:03:18;;;;;;;2.47;1.00;;;12.20;99.90;;;;;;5068449;28;20495;-60
2023/09/22 02:05:46;;;;;;;3.63;1.55;;;12.20;99.90;;;;;;5061180;28;20067;-60
2023/09/22 02:08:12;;;;;;;3.78;1.20;;;12.20;99.90;;;;;;5048541;28;20053;-60
2023/09/22 02:10:39;;;;;;;3.20;1.13;;;12.20;99.90;;;;;;5052153;28;20136;-60
2023/09/22 02:13:08;;;;;;;6.57;1.60;;;12.20;99.90;;;;;;5068094;28;20102;-60
2023/09/22 02:15:36;;;;;;;3.53;1.13;;;12.20;99.90;;;;;;5063703;28;20049;-61
2023/09/22 02:18:04;;;;;;;7.55;1.77;;;12.20;99.90;;;;;;5049667;28;20049;-60
2023/09/22 02:20:31;;;;;;;3.10;1.02;;;12.20;99.90;;;;;;5056213;28;20041;-60
2023/09/22 02:22:58;;;;;;;4.38;1.48;;;12.20;99.90;;;;;;5050996;28;20095;-61
2023/09/22 02:25:25;;;;;;;3.38;1.13;;;12.20;99.90;;;;;;5036181;28;20304;-60
2023/09/22 02:27:54;;;;;;;3.15;0.90;;;12.20;99.90;;;;;;5052735;28;20064;-60
2023/09/22 02:30:22;;;;;;;6.80;1.65;;;12.20;99.90;;;;;;5050941;28;20060;-60
2023/09/22 02:32:49;;;;;;;3.30;1.30;;;12.10;99.90;;;;;;5051212;28;20076;-59
2023/09/22 02:35:17;;;;;;;4.32;1.75;;;12.10;99.90;;;;;;5051420;28;20239;-59
2023/09/22 02:37:44;;;;;;;4.35;1.55;;;12.10;99.90;;;;;;5057440;28;20052;-59
2023/09/22 02:40:14;;;;;;;1.45;0.93;;;12.00;99.90;;;;;;5048994;28;20033;-59
2023/09/22 02:42:42;;;;;;;3.60;1.40;;;12.00;99.90;;;;;;5028165;28;20048;-60
2023/09/22 02:45:09;;;;;;;2.95;1.40;;;12.00;99.90;;;;;;5065866;28;20136;-59
2023/09/22 02:47:40;;;;;;;2.17;1.02;;;12.00;99.90;;;;;;5056451;28;20558;-59
2023/09/22 02:50:10;;;;;;;4.10;1.52;;;11.90;99.90;;;;;;5061371;28;20048;-59
2023/09/22 02:52:38;;;;;;;4.50;1.42;;;11.90;99.90;;;;;;5055205;28;20071;-60
2023/09/22 02:55:09;;;;;;;2.33;1.10;;;11.90;99.90;;;;;;5047810;28;20041;-59
2023/09/22 02:57:36;;;;;;;5.35;1.38;;;11.90;99.90;;;;;;5052243;28;20036;-59
2023/09/22 03:00:14;;;;;;;6.18;1.50;;;11.90;99.90;;;;;;5049651;28;20053;-59
2023/09/22 03:02:42;;;;;;;5.55;2.13;;;11.90;99.90;;;;;;5053976;28;20048;-60
2023/09/22 03:05:09;;;;;;;5.43;2.05;;;11.80;99.90;;;;;;5067581;28;20092;-59
2023/09/22 03:07:37;;;;;;;4.35;2.05;;;11.80;99.90;;;;;;5061534;28;20496;-60
2023/09/22 03:10:06;;;;;;;4.70;2.10;;;11.70;99.90;;;;;;5047505;28;20055;-59
2023/09/22 03:12:34;;;;;;;4.97;2.08;;;11.70;99.90;;;;;;5058538;28;20048;-59
2023/09/22 03:15:01;;;;;;;3.42;2.17;;;11.80;99.90;;;;;;5030043;28;20057;-60
2023/09/22 03:17:27;;;;;;;7.05;1.80;;;11.80;99.90;;;;;;5051072;28;20049;-60
2023/09/22 03:19:54;;;;;;;4.35;2.50;;;11.90;99.90;;;;;;5060287;28;20738;-60
2023/09/22 03:22:22;;;;;;;3.42;2.35;;;11.90;99.90;;;;;;5051261;28;20037;-60
2023/09/22 03:24:49;;;;;;;3.30;2.15;;;11.80;99.90;;;;;;5044603;28;20056;-59
2023/09/22 03:27:16;;;;;;;6.75;3.08;;;11.80;99.90;;;;;;5062531;28;20288;-59
2023/09/22 03:29:43;;;;;;;3.95;2.58;;;11.90;99.90;;;;;;5054153;28;20060;-60
2023/09/22 03:32:10;;;;;;;3.40;2.33;;;11.80;99.90;;;;;;5049999;28;20055;-60
2023/09/22 03:34:37;;;;;;;5.60;3.15;;;11.80;99.90;;;;;;5057112;28;20094;-59
2023/09/22 03:37:08;;;;;;;5.57;3.67;;;11.80;99.90;;;;;;5064095;28;20500;-60
2023/09/22 03:39:35;;;;;;;7.63;3.20;;;11.80;99.90;;;;;;5044929;28;20049;-60
2023/09/22 03:42:03;;;;;;;6.70;2.97;;;11.80;99.90;;;;;;5058017;28;20136;-60
2023/09/22 03:44:30;;;;;;;5.18;2.40;;;11.90;99.90;;;;;;5057158;28;20098;-58
2023/09/22 03:46:56;;;;;;;24.95;3.22;;;11.90;99.90;;;;;;5047265;28;20049;-59
2023/09/22 03:49:24;;;;;;;4.88;2.63;;;11.90;99.90;;;;;;5052136;28;20047;-60
2023/09/22 03:51:50;;;;;;;6.47;2.97;;;11.90;99.90;;;;;;5066965;28;20114;-59
2023/09/22 03:54:18;;;;;;;5.35;2.78;;;11.90;99.90;;;;;;5054396;28;20400;-59
2023/09/22 03:56:45;;;;;;;7.00;3.45;;;11.80;99.90;;;;;;5069038;28;20837;-59
2023/09/22 03:59:12;;;;;;;7.03;2.95;;;11.80;99.90;;;;;;5066012;28;20044;-60
2023/09/22 04:01:39;;;;;;;5.10;2.92;;;11.80;99.90;;;;;;5044572;28;20048;-60
2023/09/22 04:04:06;;;;;;;3.70;2.60;;;11.80;99.90;;;;;;5055218;28;20077;-60
2023/09/22 04:06:33;;;;;;;8.10;2.80;;;11.80;99.90;;;;;;5048215;28;20068;-61
2023/09/22 04:09:07;;;;;;;8.57;2.58;;;11.80;99.90;;;;;;5058314;28;20101;-59
2023/09/22 04:11:34;;;;;;;7.05;2.65;;;11.80;99.90;;;;;;5053286;28;20087;-59
2023/09/22 04:14:02;;;;;;;5.28;2.35;;;11.90;99.90;;;;;;5052333;28;20048;-59
2023/09/22 04:16:29;;;;;;;4.47;2.88;;;11.80;99.90;;;;;;5065943;28;20070;-59
2023/09/22 04:18:56;;;;;;;5.63;3.05;;;11.80;99.90;;;;;;5061467;28;20045;-60
2023/09/22 04:21:23;;;;;;;7.57;2.85;;;11.70;99.90;;;;;;5037658;28;20115;-60
2023/09/22 04:23:57;;;;;;;6.13;2.50;;;11.70;99.90;;;;;;5054111;28;20113;-59
2023/09/22 04:26:30;;;;;;;5.28;2.53;;;11.70;99.90;;;;;;5061010;28;20056;-61
2023/09/22 04:28:57;;;;;;;4.07;2.13;;;11.60;99.90;;;;;;5068441;28;20514;-60
2023/09/22 04:31:24;;;;;;;6.40;2.20;;;11.60;99.90;;;;;;5060257;28;20136;-60
2023/09/22 04:33:52;;;;;;;6.25;2.20;;;11.60;99.90;;;;;;5067259;28;20163;-60
2023/09/22 04:36:22;;;;;;;5.20;3.58;;;11.50;99.90;;;;;;5061404;28;20075;-60
2023/09/22 04:38:51;;;;;;;6.55;2.30;;;11.50;99.90;;;;;;5050176;28;20138;-60
2023/09/22 04:41:21;;;;;;;4.88;2.03;;;11.50;99.90;;;;;;5055438;28;20041;-60
2023/09/22 04:43:49;;;;;;;6.28;2.35;;;11.50;99.90;;;;;;5050075;28;20091;-60
2023/09/22 04:46:16;;;;;;;10.05;2.63;;;11.40;99.90;;;;;;5062042;28;20041;-60
2023/09/22 04:48:43;;;;;;;5.65;2.05;;;11.40;99.90;;;;;;5049932;28;20049;-60
2023/09/22 04:51:11;;;;;;;3.92;2.00;;;11.40;99.90;;;;;;5061807;28;20048;-60
2023/09/22 04:53:39;;;;;;;5.05;1.73;;;11.40;99.90;;;;;;5050114;28;20049;-60
2023/09/22 04:56:07;;;;;;;4.47;1.80;;;11.40;99.90;;;;;;5053542;28;20049;-60
2023/09/22 04:58:34;;;;;;;4.10;1.95;;;11.40;99.90;;;;;;5069914;28;20258;-61
2023/09/22 05:01:02;;;;;;;6.00;2.25;;;11.40;99.90;;;;;;5059470;28;20106;-60
2023/09/22 05:03:29;;;;;;;8.25;2.25;;;11.40;99.90;;;;;;5068382;28;20304;-60
2023/09/22 05:06:04;;;;;;;5.10;1.85;;;11.30;99.90;;;;;;5060540;28;20853;-60
2023/09/22 05:08:31;;;;;;;5.28;2.15;;;11.40;99.90;;;;;;5065571;28;20048;-59
2023/09/22 05:10:59;;;;;;;4.65;2.53;;;11.30;99.90;;;;;;5064786;28;20041;-59
2023/09/22 05:13:26;;;;;;;3.50;2.30;;;11.30;99.90;;;;;;5044895;28;20099;-59
2023/09/22 05:15:53;;;;;;;7.97;2.50;;;11.30;99.90;;;;;;5053113;28;20095;-60
2023/09/22 05:18:19;;;;;;;3.47;1.58;;;11.30;99.90;;;;;;5062604;28;20218;-60
2023/09/22 05:20:46;;;;;;;3.50;2.25;;;11.30;99.90;;;;;;5064976;28;20056;-59
2023/09/22 05:23:13;;;;;;;6.38;2.40;;;11.30;99.90;;;;;;5058954;28;20036;-60
2023/09/22 05:25:40;;;;;;;5.50;2.20;;;11.30;99.90;;;;;;5033158;28;20048;-59
2023/09/22 05:28:11;;;;;;;7.78;2.20;;;11.30;99.90;;;;;;5042667;28;20511;-60
2023/09/22 05:30:39;;;;;;;6.82;2.08;;;11.30;99.90;;;;;;5052000;28;20074;-60
2023/09/22 05:33:07;;;;;;;7.15;2.10;;;11.30;99.90;;;;;;5033466;28;20063;-61
2023/09/22 05:35:35;;;;;;;4.75;2.25;;;11.30;99.90;;;;;;5049304;28;20048;-60
2023/09/22 05:38:05;;;;;;;8.70;2.50;;;11.40;99.90;;;;;;5065231;28;20053;-60
2023/09/22 05:40:32;;;;;;;6.65;2.92;;;11.30;99.90;;;;;;5068846;28;20052;-59
2023/09/22 05:43:00;;;;;;;6.28;2.28;;;11.40;99.90;;;;;;5055440;28;20064;-60
2023/09/22 05:45:27;;;;;;;4.07;2.38;;;11.30;99.90;;;;;;5051214;28;20044;-59
2023/09/22 05:47:54;;;;;;;8.50;3.65;;;11.40;99.90;;;;;;5055965;28;20498;-60
2023/09/22 05:50:23;;;;;;;7.80;2.60;;;11.40;99.90;;;;;;5046851;28;20090;-59
2023/09/22 05:52:50;;;;;;;6.70;3.00;;;11.40;99.90;;;;;;5049240;28;20057;-59
2023/09/22 05:55:21;;;;;;;7.50;3.08;;;11.30;99.90;;;;;;5034272;28;20052;-60
2023/09/22 05:57:48;;;;;;;7.85;2.85;;;11.40;99.90;;;;;;5049902;28;20040;-59
2023/09/22 06:00:18;;;;;;;7.63;2.83;;;11.40;99.90;;;;;;5066364;28;20049;-60
2023/09/22 06:02:54;;;;;;;7.53;2.58;;;11.50;99.90;;;;;;5059052;28;20095;-59
2023/09/22 06:05:24;;;;;;;6.32;3.60;;;11.50;99.90;;;;;;5051440;28;20049;-59
2023/09/22 06:07:55;;;;;;;9.18;3.05;;;11.50;99.90;;;;;;5041822;28;20059;-60
2023/09/22 06:10:24;;;;;;;9.38;3.83;;;11.50;99.90;;;;;;5024042;28;20049;-60
2023/09/22 06:12:51;;;;;;;5.97;3.40;;;11.50;99.90;;;;;;5048133;28;20140;-60
2023/09/22 06:15:18;;;;;;;9.82;4.28;;;11.60;99.90;;;;;;5049263;28;20051;-60
2023/09/22 06:17:46;;;;;;;6.00;3.08;;;11.60;99.90;;;;;;5053526;28;20041;-61
2023/09/22 06:20:15;;;;;;;8.77;3.53;;;11.70;99.90;;;;;;5049942;28;20076;-60
2023/09/22 06:22:43;;;;;;;8.85;4.28;;;11.70;99.90;;;;;;5048344;28;20041;-61
2023/09/22 06:25:13;;;;;;;10.77;3.35;;;11.80;99.90;;;;;;5047226;28;20048;-61
2023/09/22 06:27:41;;;;;;;9.77;3.47;;;11.80;99.90;;;;;;5050440;28;20061;-61
2023/09/22 06:30:11;;;;;;;7.40;3.47;;;11.80;99.90;;;;;;5057157;28;20098;-61
2023/09/22 06:32:42;;;;;;;8.05;4.03;;;11.80;99.90;;;;;;5065829;28;20135;-61
2023/09/22 06:35:10;;;;;;;9.13;4.78;;;11.80;99.90;;;;;;5029807;28;20051;-62
2023/09/22 06:37:38;;;;;;;6.97;4.70;;;11.90;99.90;;;;;;5047416;28;20326;-62
2023/09/22 06:40:11;;;;;;;16.60;4.88;;;11.90;99.90;;;;;;5038400;28;20478;-61
2023/09/22 06:42:40;;;;;;;13.17;4.80;;;12.00;99.90;;;;;;5042059;28;20045;-61
2023/09/22 06:45:12;;;;;;;8.65;4.78;;;11.90;99.90;;;;;;5031952;28;20771;-61
2023/09/22 06:47:41;;;;;;;10.63;4.28;;;12.00;99.90;;;;;;5050665;28;20041;-61
2023/09/22 06:50:08;;;;;;;8.30;4.82;;;12.00;99.90;;;;;;5059844;28;20098;-61
2023/09/22 06:52:36;;;;;;;9.32;4.43;;;12.00;99.90;;;;;;5044441;28;20044;-61
2023/09/22 06:55:07;;;;;;;7.20;4.80;;;12.00;99.90;;;;;;5049359;28;20051;-60
2023/09/22 06:57:40;;;;;;;9.85;5.05;;;12.10;99.90;;;;;;5037326;28;20420;-59
2023/09/22 07:00:22;;;;;;;10.88;5.78;;;12.10;99.90;;;;;;5042765;28;20435;-59
2023/09/22 07:02:49;;;;;;;13.23;5.30;;;12.10;99.90;;;;;;5041124;28;20099;-59
2023/09/22 07:05:16;;;;;;;16.90;4.88;;;12.20;99.90;;;;;;5040310;28;20049;-59
2023/09/22 07:07:44;;;;;;;8.77;4.60;;;12.20;99.90;;;;;;5041159;28;20045;-59
2023/09/22 07:10:11;;;;;;;7.35;4.13;;;12.20;99.90;;;;;;5041076;28;20059;-59
2023/09/22 07:12:38;;;;;;;9.48;4.18;;;12.10;99.90;;;;;;5041324;28;20125;-60
2023/09/22 07:15:06;;;;;;;13.65;4.68;;;12.10;99.90;;;;;;5048193;28;20563;-59
2023/09/22 07:17:33;;;;;;;7.55;4.38;;;12.20;99.90;;;;;;5048418;28;20101;-59
2023/09/22 07:20:01;;;;;;;6.88;4.13;;;12.20;99.90;;;;;;5041794;28;20721;-59
2023/09/22 07:22:34;;;;;;;8.98;4.55;;;12.20;99.90;;;;;;5050109;28;20045;-58
2023/09/22 07:25:04;;;;;;;6.13;4.30;;;12.20;99.90;;;;;;5043135;28;20052;-59
2023/09/22 07:27:31;;;;;;;12.20;4.95;;;12.20;99.90;;;;;;5035429;28;20060;-60
2023/09/22 07:29:58;;;;;;;11.82;4.20;;;12.20;99.90;;;;;;5022320;28;20124;-60
2023/09/22 07:32:25;;;;;;;8.25;5.65;;;12.00;99.90;;;;;;5045399;28;20045;-60
2023/09/22 07:34:52;;;;;;;9.95;5.03;;;12.00;99.90;;;;;;5022782;28;20131;-60
2023/09/22 07:37:19;;;;;;;5.88;4.88;;;12.00;99.90;;;;;;5045316;28;20044;-61
2023/09/22 07:39:50;;;;;;;10.57;5.05;;;12.00;99.90;;;;;;5043172;28;20129;-60
2023/09/22 07:42:17;;;;;;;11.02;5.35;;;12.10;99.90;;;;;;5038085;28;20040;-60
2023/09/22 07:44:43;;;;;;;7.93;5.20;;;12.00;99.90;;;;;;5020365;28;20048;-60
2023/09/22 07:47:11;;;;;;;10.77;5.40;;;12.00;99.90;;;;;;5052567;28;20415;-58
2023/09/22 07:49:37;;;;;;;11.15;5.20;;;12.00;99.90;;;;;;5037454;28;20045;-59
2023/09/22 07:52:04;;;;;;;12.80;5.30;;;12.10;99.90;;;;;;5044783;28;20572;-59
2023/09/22 07:54:33;;;;;;;12.13;5.07;;;12.10;99.90;;;;;;5046442;28;20084;-60
2023/09/22 07:57:01;;;;;;;8.25;5.15;;;12.10;99.90;;;;;;5047838;28;20135;-59
2023/09/22 07:59:31;;;;;;;11.43;5.50;;;12.10;99.90;;;;;;5032234;28;20049;-59
2023/09/22 08:02:03;;;;;;;7.18;5.18;;;12.20;99.90;;;;;;5046476;28;20041;-58
2023/09/22 08:04:30;;;;;;;14.77;5.63;;;12.20;99.90;;;;;;5045123;28;20045;-59
2023/09/22 08:07:00;;;;;;;11.10;5.28;;;12.20;99.90;;;;;;5052399;28;20099;-59
2023/09/22 08:09:28;;;;;;;10.52;5.85;;;12.10;99.90;;;;;;5050276;28;20049;-59
2023/09/22 08:11:55;;;;;;;8.82;5.50;;;12.10;99.90;;;;;;5049895;28;20052;-60
2023/09/22 08:14:23;;;;;;;7.15;4.35;;;12.00;99.90;;;;;;5042376;28;20057;-59
2023/09/22 08:17:07;;;;;;;7.07;5.13;;;12.00;99.90;;;;;;5047228;28;20045;-60
2023/09/22 08:19:34;;;;;;;11.02;5.65;;;12.00;99.90;;;;;;5044944;28;20044;-58
2023/09/22 08:22:01;;;;;;;7.10;4.75;;;12.00;99.90;;;;;;5046888;28;20099;-59
2023/09/22 08:24:28;;;;;;;8.70;5.22;;;12.00;99.90;;;;;;5048034;28;20539;-59
2023/09/22 08:26:56;;;;;;;14.40;5.50;;;12.10;99.90;;;;;;5030615;28;20084;-59
2023/09/22 08:29:23;;;;;;;9.60;5.15;;;12.10;99.90;;;;;;5046417;28;20074;-59
2023/09/22 08:31:50;;;;;;;13.63;5.97;;;12.20;99.90;;;;;;5035477;28;20148;-59
2023/09/22 08:34:16;;;;;;;12.88;6.22;;;12.30;99.90;;;;;;5045839;28;20651;-60
2023/09/22 08:36:43;;;;;;;9.32;5.82;;;12.40;99.90;;;;;;5039771;28;20041;-60
2023/09/22 08:39:14;;;;;;;10.65;7.25;;;12.40;99.90;;;;;;5017595;28;20131;-60
2023/09/22 08:41:41;;;;;;;16.08;7.47;;;12.50;99.90;;;;;;5046891;28;20041;-60
2023/09/22 08:44:09;;;;;;;11.60;6.30;;;12.40;99.90;;;;;;5062892;28;20072;-60
2023/09/22 08:46:36;;;;;;;9.52;6.05;;;12.50;99.90;;;;;;5032105;28;20091;-60
2023/09/22 08:49:04;;;;;;;9.77;5.93;;;12.50;99.90;;;;;;5037219;28;20049;-59
2023/09/22 08:51:31;;;;;;;11.27;5.78;;;12.50;99.90;;;;;;5052303;28;20131;-59
2023/09/22 08:53:58;;;;;;;10.73;6.55;;;12.50;99.90;;;;;;5056875;28;20506;-59
2023/09/22 08:56:25;;;;;;;10.98;5.75;;;12.50;99.90;;;;;;5061648;28;20090;-59
2023/09/22 08:58:52;;;;;;;12.02;5.93;;;12.50;99.90;;;;;;5053400;28;20048;-59
2023/09/22 09:01:19;;;;;;;9.05;6.47;;;12.60;99.90;;;;;;5067364;28;20055;-60
2023/09/22 09:03:46;;;;;;;13.50;6.13;;;12.80;99.90;;;;;;5061827;28;20102;-59
2023/09/22 09:06:17;;;;;;;15.52;6.93;;;13.10;99.90;;;;;;5047810;28;20511;-59
2023/09/22 09:09:12;;;;;;;7.90;5.28;;;13.40;99.90;;;;;;5064986;28;20072;-59
2023/09/22 09:12:01;;;;;;;11.63;5.07;;;13.70;99.90;;;;;;5052235;28;20170;-59
2023/09/22 09:14:28;;;;;;;9.85;5.85;;;13.90;99.90;;;;;;5052903;28;20094;-61
2023/09/22 09:16:58;;;;;;;10.88;5.65;;;14.30;99.90;;;;;;5049821;28;20136;-60
2023/09/22 09:19:26;;;;;;;7.65;5.30;;;14.40;99.90;;;;;;5035867;28;20049;-59
2023/09/22 09:22:05;;;;;;;11.93;5.25;;;14.50;99.90;;;;;;5065930;28;20079;-60
2023/09/22 09:24:33;;;;;;;7.13;4.50;;;14.60;99.90;;;;;;5043866;28;20056;-60
2023/09/22 09:27:00;;;;;;;6.90;4.60;;;14.70;99.90;;;;;;5047586;28;20041;-60
2023/09/22 09:29:31;;;;;;;8.20;5.25;;;15.00;99.90;;;;;;5062611;28;20052;-60
2023/09/22 09:32:00;;;;;;;10.35;5.07;;;15.20;99.90;;;;;;5063892;28;20064;-59
2023/09/22 09:34:40;;;;;;;14.57;5.07;;;15.00;99.90;;;;;;5060945;28;20094;-59
2023/09/22 09:37:13;;;;;;;7.30;4.32;;;14.70;99.90;;;;;;5050843;28;20134;-59
2023/09/22 09:39:49;;;;;;;11.82;5.03;;;14.60;99.90;;;;;;5052673;28;20041;-59
2023/09/22 09:42:22;;;;;;;7.93;4.57;;;14.40;99.90;;;;;;5063185;28;20352;-59
2023/09/22 09:44:54;;;;;;;11.70;5.38;;;14.30;99.90;;;;;;5064637;28;20051;-60
2023/09/22 09:47:23;;;;;;;6.88;4.90;;;14.20;99.90;;;;;;5056290;28;20056;-60
2023/09/22 09:49:56;;;;;;;9.73;5.40;;;14.20;99.90;;;;;;5035371;28;20049;-60
2023/09/22 09:52:28;;;;;;;11.00;5.57;;;14.20;99.90;;;;;;5019180;28;20049;-60
2023/09/22 09:55:15;;;;;;;7.20;5.28;;;14.30;99.90;;;;;;5033028;28;20511;-60
2023/09/22 09:57:43;;;;;;;14.10;4.97;;;14.40;99.90;;;;;;5037632;28;20521;-60
2023/09/22 10:00:19;;;;;;;9.95;5.00;;;14.50;99.90;;;;;;5052404;28;20048;-60
2023/09/22 10:02:47;;;;;;;10.25;4.78;;;14.40;99.90;;;;;;5061307;28;20052;-60
2023/09/22 10:05:15;;;;;;;8.38;4.80;;;14.50;99.90;;;;;;5054438;28;20129;-60
2023/09/22 10:07:50;;;;;;;5.75;3.45;;;14.50;99.90;;;;;;5053074;28;20049;-60
2023/09/22 10:10:19;;;;;;;7.80;2.97;;;14.50;99.90;;;;;;5052492;28;20132;-60
2023/09/22 10:12:47;;;;;;;15.40;4.57;;;14.50;99.90;;;;;;5033569;28;20044;-59
2023/09/22 10:15:14;;;;;;;9.77;5.25;;;14.70;99.90;;;;;;5033357;28;20041;-58
2023/09/22 10:17:41;;;;;;;6.20;2.80;;;14.70;99.90;;;;;;5057156;28;20049;-60
2023/09/22 10:20:12;;;;;;;6.72;3.28;;;14.70;99.90;;;;;;5053053;28;20045;-60
2023/09/22 10:22:39;;;;;;;9.27;3.30;;;14.80;99.90;;;;;;5059921;28;20146;-59
2023/09/22 10:25:12;;;;;;;4.10;2.58;;;14.90;99.90;;;;;;5045591;28;20045;-59
2023/09/22 10:27:55;;;;;;;6.22;2.17;;;14.90;99.90;;;;;;5059677;28;20055;-59
2023/09/22 10:30:44;;;;;;;2.88;2.33;;;14.90;99.90;;;;;;5048170;28;20045;-60
2023/09/22 10:33:26;;;;;;;5.65;2.55;;;14.90;99.90;;;;;;5053150;28;20075;-60
2023/09/22 10:35:53;;;;;;;4.50;2.75;;;14.90;99.90;;;;;;5030603;28;20045;-60
2023/09/22 10:38:21;;;;;;;7.55;2.30;;;15.00;99.90;;;;;;5041652;28;20068;-60
2023/09/22 10:41:01;;;;;;;7.85;2.28;;;15.10;99.90;;;;;;5047960;28;20128;-60
2023/09/22 10:43:30;;;;;;;4.22;2.10;;;15.30;99.90;;;;;;5057102;28;20068;-60
2023/09/22 10:45:57;;;;;;;5.30;2.65;;;15.40;99.90;;;;;;5048359;28;20049;-60
2023/09/22 10:48:24;;;;;;;7.90;2.63;;;15.40;99.90;;;;;;5056203;28;20050;-60
2023/09/22 10:50:52;;;;;;;4.03;1.58;;;15.50;99.90;;;;;;5049678;28;20553;-60
2023/09/22 10:53:18;;;;;;;12.68;2.45;;;15.50;99.90;;;;;;5060698;28;20094;-60
2023/09/22 10:55:45;;;;;;;7.32;3.35;;;15.50;99.90;;;;;;5047232;28;20174;-60
2023/09/22 10:58:18;;;;;;;7.85;2.58;;;15.50;99.90;;;;;;5041872;28;20530;-60
2023/09/22 11:01:01;;;;;;;3.73;1.67;;;15.50;99.90;;;;;;5047642;28;20052;-60
2023/09/22 11:03:28;;;;;;;6.30;1.77;;;15.40;99.90;;;;;;5052699;28;20298;-60
2023/09/22 11:05:59;;;;;;;4.13;1.52;;;15.40;99.90;;;;;;5066506;28;20104;-61
2023/09/22 11:08:26;;;;;;;7.72;2.60;;;15.40;99.90;;;;;;5034310;28;20466;-61
2023/09/22 11:10:54;;;;;;;6.50;2.05;;;15.60;99.90;;;;;;5048912;28;20048;-60
2023/09/22 11:13:24;;;;;;;4.28;1.70;;;15.80;99.90;;;;;;5063266;28;20075;-61
2023/09/22 11:15:59;;;;;;;8.00;2.42;;;15.90;99.90;;;;;;5049353;28;20060;-60
2023/09/22 11:18:28;;;;;;;7.45;1.73;;;15.90;99.90;;;;;;5056013;28;20491;-60
2023/09/22 11:21:05;;;;;;;8.23;2.35;;;15.90;99.90;;;;;;5050194;28;20057;-60
2023/09/22 11:23:32;;;;;;;3.30;1.77;;;16.00;99.90;;;;;;5055832;28;20051;-60
2023/09/22 11:26:00;;;;;;;4.70;1.42;;;16.10;99.90;;;;;;5033345;28;20416;-61
2023/09/22 11:28:27;;;;;;;2.92;1.33;;;16.10;99.90;;;;;;5051226;28;20475;-60
2023/09/22 11:30:54;;;;;;;2.38;1.48;;;16.10;99.90;;;;;;5061390;28;20553;-60
2023/09/22 11:33:22;;;;;;;5.38;1.98;;;16.10;99.90;;;;;;5062364;28;20783;-60
2023/09/22 11:35:51;;;;;;;3.97;1.80;;;16.20;99.90;;;;;;5054840;28;20057;-60
2023/09/22 11:38:24;;;;;;;4.03;1.38;;;16.20;99.90;;;;;;5051107;28;20040;-60
2023/09/22 11:41:02;;;;;;;5.90;1.60;;;16.40;99.90;;;;;;5057704;28;20052;-60
2023/09/22 11:43:29;;;;;;;4.28;1.17;;;16.50;99.90;;;;;;5062915;28;20041;-59
2023/09/22 11:46:25;;;;;;;8.73;1.38;;;16.50;99.90;;;;;;5056947;28;20049;-60
2023/09/22 11:49:04;;;;;;;5.85;1.30;;;16.60;99.90;;;;;;5017076;28;20072;-59
2023/09/22 11:51:40;;;;;;;4.00;1.45;;;16.80;99.90;;;;;;5042906;28;20044;-60
2023/09/22 11:54:08;;;;;;;3.03;1.10;;;16.80;99.90;;;;;;5057466;28;20412;-60
2023/09/22 11:56:35;;;;;;;3.17;1.10;;;16.80;99.90;;;;;;5059111;28;20561;-60
2023/09/22 11:59:12;;;;;;;6.45;1.48;;;16.70;99.90;;;;;;5044541;28;20697;-61
2023/09/22 12:01:39;;;;;;;5.13;1.20;;;16.70;99.90;;;;;;5055085;28;20049;-60
2023/09/22 12:04:07;;;;;;;3.85;1.27;;;16.80;99.90;;;;;;5049097;28;20045;-59
2023/09/22 12:06:34;;;;;;;5.50;1.80;;;17.00;99.90;;;;;;5058715;28;20080;-60
2023/09/22 12:09:01;;;;;;;2.20;1.02;;;17.10;99.90;;;;;;5031044;28;20113;-60
2023/09/22 12:11:28;;;;;;;5.63;1.30;;;16.90;99.90;;;;;;5059249;28;20437;-60
2023/09/22 12:13:54;;;;;;;4.75;1.38;;;17.00;99.90;;;;;;5047299;28;20049;-60
2023/09/22 12:16:21;;;;;;;5.18;1.42;;;17.00;99.90;;;;;;5049097;28;20519;-60
2023/09/22 12:18:48;;;;;;;3.72;1.10;;;17.00;99.90;;;;;;5070498;28;20047;-61
2023/09/22 12:21:15;;;;;;;5.95;1.60;;;17.20;99.90;;;;;;5058009;28;20505;-60
2023/09/22 12:23:42;;;;;;;4.78;1.05;;;17.30;99.90;;;;;;5070700;28;20045;-60
2023/09/22 12:26:10;;;;;;;2.03;0.82;;;17.40;99.90;;;;;;5057578;28;20061;-59
2023/09/22 12:28:37;;;;;;;2.15;0.63;;;17.40;99.90;;;;;;5069664;28;20045;-59
2023/09/22 12:31:04;;;;;;;3.10;0.73;;;17.40;99.90;;;;;;5065658;28;20343;-59
2023/09/22 12:33:31;;;;;;;2.33;1.10;;;17.30;99.90;;;;;;5051416;28;20045;-62
2023/09/22 12:35:58;;;;;;;8.40;1.70;;;17.30;99.90;;;;;;5054425;28;20458;-59
2023/09/22 12:38:25;;;;;;;1.70;0.65;;;17.40;99.90;;;;;;5066791;28;20082;-58
2023/09/22 12:40:52;;;;;;;2.70;0.88;;;17.40;99.90;;;;;;5063092;28;20626;-58
2023/09/22 12:43:19;;;;;;;5.00;1.20;;;17.50;99.90;;;;;;5046771;28;20044;-59
2023/09/22 12:45:46;;;;;;;4.63;1.33;;;17.50;99.90;;;;;;5065535;28;20060;-59
2023/09/22 12:48:13;;;;;;;12.68;1.00;;;17.60;99.90;;;;;;5045088;28;20045;-59
2023/09/22 12:50:39;;;;;;;4.75;1.10;;;17.50;99.90;;;;;;5037846;28;20136;-60
2023/09/22 12:53:06;;;;;;;4.22;1.05;;;17.50;99.90;;;;;;5069307;28;20110;-58